| time (UTC) | temp C | wind direction | speed KPH | gust KPH | rain 1hr cm | rain 24hr cm | rain mn cm | humidity % | barometer mb |
| 20260509222708 | 25 | 196 | 3.2 | 3.2 | 0.00 | 0.00 | 0.00 | 42 | 1009.9 |
| 20260509222203 | 25 | 205 | 3.2 | 3.2 | 0.00 | 0.00 | 0.00 | 42 | 1009.8 |
| 20260509221659 | 25 | 221 | 6.4 | 6.4 | 0.00 | 0.00 | 0.00 | 43 | 1009.8 |
| 20260509221155 | 25 | 228 | 6.4 | 6.4 | 0.00 | 0.00 | 0.00 | 43 | 1009.7 |
| 20260509220651 | 25 | 189 | 1.6 | 3.2 | 0.00 | 0.00 | 0.00 | 42 | 1009.7 |
| 20260509220148 | 25 | 222 | 4.8 | 4.8 | 0.00 | 0.00 | 0.00 | 42 | 1009.9 |
| 20260509215644 | 25 | 148 | 3.2 | 3.2 | 0.00 | 0.00 | 0.00 | 45 | 1009.8 |
| 20260509215141 | 25 | 207 | 9.7 | 14.5 | 0.00 | 0.00 | 0.00 | 43 | 1009.8 |
| 20260509214638 | 25 | 261 | 1.6 | 1.6 | 0.00 | 0.00 | 0.00 | 42 | 1009.8 |
| 20260509214134 | 25 | 200 | 4.8 | 4.8 | 0.00 | 0.00 | 0.00 | 44 | 1009.5 |
| 20260509213631 | 25 | 201 | 6.4 | 6.4 | 0.00 | 0.00 | 0.00 | 43 | 1009.8 |
| 20260509213127 | 25 | 214 | 4.8 | 4.8 | 0.00 | 0.00 | 0.00 | 46 | 1009.7 |
| 20260509212625 | 25 | 210 | 6.4 | 6.4 | 0.00 | 0.00 | 0.00 | 44 | 1009.7 |
| 20260509212122 | 25 | 205 | 3.2 | 4.8 | 0.00 | 0.00 | 0.00 | 44 | 1009.7 |
| 20260509211617 | 25 | 256 | 4.8 | 4.8 | 0.00 | 0.00 | 0.00 | 44 | 1009.6 |
| 20260509211114 | 25 | 187 | 1.6 | 3.2 | 0.00 | 0.00 | 0.00 | 45 | 1009.7 |
| 20260509210611 | 25 | 194 | 4.8 | 4.8 | 0.00 | 0.00 | 0.00 | 45 | 1009.6 |
| 20260509210108 | 25 | 211 | 1.6 | 3.2 | 0.00 | 0.00 | 0.00 | 46 | 1009.5 |
| 20260509205602 | 25 | 220 | 4.8 | 4.8 | 0.00 | 0.00 | 0.00 | 44 | 1009.7 |
| 20260509205057 | 25 | 223 | 6.4 | 6.4 | 0.00 | 0.00 | 0.00 | 47 | 1009.6 |
| 20260509204554 | 25 | 249 | 4.8 | 4.8 | 0.00 | 0.00 | 0.00 | 47 | 1009.7 |
| 20260509204050 | 25 | 198 | 4.8 | 6.4 | 0.00 | 0.00 | 0.00 | 46 | 1009.6 |
| 20260509203546 | 25 | 211 | 4.8 | 4.8 | 0.00 | 0.00 | 0.00 | 48 | 1009.7 |
| 20260509203045 | 25 | 261 | 4.8 | 4.8 | 0.00 | 0.00 | 0.00 | 49 | 1009.8 |
| 20260509202545 | 25 | 214 | 6.4 | 6.4 | 0.00 | 0.00 | 0.00 | 48 | 1009.7 |
| 20260509202041 | 25 | 206 | 1.6 | 3.2 | 0.00 | 0.00 | 0.00 | 50 | 1009.8 |
| 20260509201536 | 25 | 228 | 9.7 | 11.3 | 0.00 | 0.00 | 0.00 | 49 | 1010.1 |
| 20260509201034 | 25 | 305 | 11.3 | 14.5 | 0.00 | 0.00 | 0.00 | 48 | 1010.0 |
| 20260509200532 | 25 | 252 | 1.6 | 3.2 | 0.00 | 0.00 | 0.00 | 48 | 1010.2 |
| 20260509200030 | 25 | 242 | 9.7 | 11.3 | 0.00 | 0.00 | 0.00 | 47 | 1010.2 |
| 20260509195526 | 24 | 201 | 4.8 | 6.4 | 0.00 | 0.00 | 0.00 | 53 | 1010.4 |
| 20260509195026 | 25 | 210 | 4.8 | 6.4 | 0.00 | 0.00 | 0.00 | 51 | 1010.4 |
| 20260509194521 | 23 | 274 | 3.2 | 4.8 | 0.00 | 0.00 | 0.00 | 50 | 1010.4 |
| 20260509194019 | 23 | 224 | 9.7 | 11.3 | 0.00 | 0.00 | 0.00 | 48 | 1010.3 |
| 20260509193518 | 24 | 228 | 9.7 | 12.9 | 0.00 | 0.00 | 0.00 | 49 | 1010.5 |
| 20260509193016 | 23 | 266 | 4.8 | 4.8 | 0.00 | 0.00 | 0.00 | 51 | 1010.4 |
| 20260509192512 | 23 | 195 | 6.4 | 6.4 | 0.00 | 0.00 | 0.00 | 53 | 1010.3 |
| 20260509192007 | 23 | 229 | 8.0 | 12.9 | 0.00 | 0.00 | 0.00 | 54 | 1010.4 |
| 20260509191502 | 24 | 193 | 3.2 | 4.8 | 0.00 | 0.00 | 0.00 | 52 | 1010.3 |
| 20260509190958 | 23 | 196 | 0.0 | 0.0 | 0.00 | 0.00 | 0.00 | 51 | 1010.2 |
| 20260509190455 | 23 | 199 | 6.4 | 6.4 | 0.00 | 0.00 | 0.00 | 51 | 1010.3 |
| 20260509185953 | 23 | 185 | 4.8 | 6.4 | 0.00 | 0.00 | 0.00 | 51 | 1010.4 |
| 20260509185450 | 23 | 213 | 8.0 | 11.3 | 0.00 | 0.00 | 0.00 | 53 | 1010.4 |
| 20260509184946 | 23 | 204 | 8.0 | 11.3 | 0.00 | 0.00 | 0.00 | 53 | 1010.3 |
| 20260509184445 | 23 | 195 | 3.2 | 4.8 | 0.00 | 0.00 | 0.00 | 51 | 1010.4 |
| 20260509183941 | 23 | 203 | 9.7 | 12.9 | 0.00 | 0.00 | 0.00 | 53 | 1010.3 |
| 20260509183440 | 23 | 195 | 12.9 | 14.5 | 0.00 | 0.00 | 0.00 | 52 | 1010.4 |
| 20260509182937 | 23 | 208 | 4.8 | 6.4 | 0.00 | 0.00 | 0.00 | 54 | 1010.2 |
| 20260509182434 | 22 | 299 | 6.4 | 9.7 | 0.00 | 0.00 | 0.00 | 57 | 1010.4 |
| 20260509181931 | 23 | 211 | 3.2 | 3.2 | 0.00 | 0.00 | 0.00 | 55 | 1010.2 |
| 20260509181429 | 23 | 206 | 3.2 | 6.4 | 0.00 | 0.00 | 0.00 | 61 | 1010.2 |
| 20260509180926 | 23 | 236 | 3.2 | 3.2 | 0.00 | 0.00 | 0.00 | 58 | 1010.4 |
| 20260509180421 | 23 | 229 | 6.4 | 6.4 | 0.00 | 0.00 | 0.00 | 58 | 1010.3 |
| 20260509175919 | 23 | 243 | 4.8 | 6.4 | 0.00 | 0.00 | 0.00 | 59 | 1010.2 |
| 20260509175415 | 23 | 342 | 1.6 | 1.6 | 0.00 | 0.00 | 0.00 | 56 | 1010.2 |
| 20260509174912 | 23 | 194 | 1.6 | 1.6 | 0.00 | 0.00 | 0.00 | 57 | 1010.3 |
| 20260509174408 | 22 | 236 | 4.8 | 6.4 | 0.00 | 0.00 | 0.00 | 58 | 1010.3 |
| 20260509173904 | 22 | 212 | 0.0 | 1.6 | 0.00 | 0.00 | 0.00 | 58 | 1010.4 |
| 20260509173403 | 22 | 185 | 1.6 | 4.8 | 0.00 | 0.00 | 0.00 | 59 | 1010.5 |
| 20260509172900 | 22 | 205 | 4.8 | 4.8 | 0.00 | 0.00 | 0.00 | 57 | 1010.6 |
| 20260509172357 | 22 | 317 | 4.8 | 6.4 | 0.00 | 0.00 | 0.00 | 60 | 1010.4 |
| 20260509171853 | 21 | 235 | 3.2 | 3.2 | 0.00 | 0.00 | 0.00 | 60 | 1010.2 |
| 20260509171349 | 21 | 42 | 4.8 | 4.8 | 0.00 | 0.00 | 0.00 | 61 | 1010.5 |
| 20260509170846 | 21 | 16 | 4.8 | 4.8 | 0.00 | 0.00 | 0.00 | 60 | 1010.5 |
| 20260509170342 | 22 | 276 | 1.6 | 4.8 | 0.00 | 0.00 | 0.00 | 60 | 1010.7 |
| 20260509165841 | 22 | 209 | 3.2 | 3.2 | 0.00 | 0.00 | 0.00 | 61 | 1010.5 |
| 20260509165336 | 21 | 318 | 1.6 | 1.6 | 0.00 | 0.00 | 0.00 | 61 | 1010.5 |
| 20260509164832 | 22 | 269 | 6.4 | 6.4 | 0.00 | 0.00 | 0.00 | 59 | 1010.6 |
| 20260509164329 | 22 | 323 | 1.6 | 3.2 | 0.00 | 0.00 | 0.00 | 61 | 1010.7 |
| 20260509163825 | 22 | 289 | 1.6 | 3.2 | 0.00 | 0.00 | 0.00 | 58 | 1010.6 |
| 20260509163323 | 21 | 331 | 1.6 | 3.2 | 0.00 | 0.00 | 0.00 | 65 | 1010.8 |
| 20260509162822 | 21 | 194 | 3.2 | 3.2 | 0.00 | 0.00 | 0.00 | 64 | 1010.6 |
| 20260509162320 | 21 | 213 | 3.2 | 4.8 | 0.00 | 0.00 | 0.00 | 65 | 1010.7 |
| 20260509161817 | 21 | 268 | 1.6 | 3.2 | 0.00 | 0.00 | 0.00 | 66 | 1010.8 |
| 20260509161313 | 21 | 191 | 6.4 | 6.4 | 0.00 | 0.00 | 0.00 | 62 | 1010.5 |
| 20260509160809 | 21 | 346 | 1.6 | 1.6 | 0.00 | 0.00 | 0.00 | 67 | 1010.4 |
| 20260509160305 | 21 | 244 | 1.6 | 3.2 | 0.00 | 0.00 | 0.00 | 63 | 1010.5 |
| 20260509155800 | 21 | 188 | 3.2 | 3.2 | 0.00 | 0.00 | 0.00 | 64 | 1010.7 |
| 20260509155257 | 20 | 230 | 3.2 | 3.2 | 0.00 | 0.00 | 0.00 | 67 | 1010.6 |
| 20260509154753 | 20 | 179 | 3.2 | 3.2 | 0.00 | 0.00 | 0.00 | 67 | 1010.6 |
| 20260509154250 | 20 | 298 | 3.2 | 4.8 | 0.00 | 0.00 | 0.00 | 67 | 1010.4 |
| 20260509153747 | 20 | 183 | 6.4 | 6.4 | 0.00 | 0.00 | 0.00 | 70 | 1010.5 |
| 20260509153243 | 20 | 236 | 6.4 | 6.4 | 0.00 | 0.00 | 0.00 | 69 | 1010.5 |
| 20260509152739 | 19 | 192 | 4.8 | 6.4 | 0.00 | 0.00 | 0.00 | 71 | 1010.2 |
| 20260509152236 | 20 | 208 | 3.2 | 4.8 | 0.00 | 0.00 | 0.00 | 69 | 1010.2 |
| 20260509151733 | 18 | 309 | 1.6 | 3.2 | 0.00 | 0.00 | 0.00 | 73 | 1010.2 |
| 20260509151230 | 18 | 261 | 1.6 | 3.2 | 0.00 | 0.00 | 0.00 | 72 | 1010.3 |
| 20260509150728 | 18 | 180 | 3.2 | 3.2 | 0.00 | 0.00 | 0.00 | 73 | 1010.2 |
| 20260509150226 | 18 | 197 | 0.0 | 1.6 | 0.00 | 0.00 | 0.00 | 77 | 1010.3 |
| 20260509145723 | 18 | 235 | 0.0 | 1.6 | 0.00 | 0.00 | 0.00 | 76 | 1010.1 |
| 20260509145223 | 18 | 211 | 4.8 | 6.4 | 0.00 | 0.00 | 0.00 | 74 | 1010.2 |
| 20260509144719 | 18 | 235 | 4.8 | 4.8 | 0.00 | 0.00 | 0.00 | 75 | 1010.3 |
| 20260509144216 | 18 | 204 | 1.6 | 3.2 | 0.00 | 0.00 | 0.00 | 74 | 1010.1 |
| 20260509143714 | 18 | 229 | 3.2 | 3.2 | 0.00 | 0.00 | 0.00 | 76 | 1010.0 |
| 20260509143211 | 18 | 256 | 0.0 | 0.0 | 0.00 | 0.00 | 0.00 | 75 | 1010.0 |
| 20260509142706 | 17 | 194 | 1.6 | 1.6 | 0.00 | 0.00 | 0.00 | 78 | 1010.0 |
| 20260509142203 | 17 | 264 | 3.2 | 3.2 | 0.00 | 0.00 | 0.00 | 79 | 1010.1 |
| 20260509141659 | 17 | 205 | 4.8 | 6.4 | 0.00 | 0.00 | 0.00 | 79 | 1010.0 |
| 20260509141156 | 17 | 198 | 9.7 | 12.9 | 0.00 | 0.00 | 0.00 | 78 | 1009.9 |
| 20260509140652 | 17 | 320 | 3.2 | 4.8 | 0.00 | 0.00 | 0.00 | 79 | 1009.8 |
| 20260509140150 | 16 | 221 | 6.4 | 9.7 | 0.00 | 0.00 | 0.00 | 81 | 1009.7 |
| 20260509135647 | 17 | 203 | 9.7 | 11.3 | 0.00 | 0.00 | 0.00 | 80 | 1009.8 |
| 20260509135146 | 17 | 235 | 3.2 | 6.4 | 0.00 | 0.00 | 0.00 | 80 | 1010.0 |
| 20260509134642 | 16 | 227 | 6.4 | 9.7 | 0.00 | 0.00 | 0.00 | 82 | 1009.9 |
| 20260509134139 | 16 | 216 | 4.8 | 6.4 | 0.00 | 0.00 | 0.00 | 82 | 1009.8 |
| 20260509133636 | 16 | 226 | 3.2 | 4.8 | 0.00 | 0.00 | 0.00 | 82 | 1009.9 |
| 20260509133133 | 15 | 254 | 4.8 | 4.8 | 0.00 | 0.00 | 0.00 | 84 | 1009.7 |
| 20260509132632 | 15 | 201 | 4.8 | 6.4 | 0.00 | 0.00 | 0.00 | 82 | 1009.8 |
| 20260509132130 | 15 | 205 | 9.7 | 11.3 | 0.00 | 0.00 | 0.00 | 81 | 1009.8 |
| 20260509131626 | 15 | 196 | 8.0 | 11.3 | 0.00 | 0.00 | 0.00 | 82 | 1009.8 |
| 20260509131123 | 15 | 217 | 3.2 | 4.8 | 0.00 | 0.00 | 0.00 | 84 | 1009.7 |
| 20260509130619 | 15 | 232 | 8.0 | 9.7 | 0.00 | 0.00 | 0.00 | 83 | 1009.7 |
| 20260509130115 | 15 | 207 | 9.7 | 11.3 | 0.00 | 0.00 | 0.00 | 83 | 1009.9 |
| 20260509125612 | 15 | 223 | 6.4 | 9.7 | 0.00 | 0.00 | 0.00 | 83 | 1009.8 |
| 20260509125108 | 15 | 208 | 4.8 | 9.7 | 0.00 | 0.00 | 0.00 | 84 | 1009.8 |
| 20260509124605 | 15 | 218 | 3.2 | 3.2 | 0.00 | 0.00 | 0.00 | 84 | 1009.8 |
| 20260509124102 | 15 | 220 | 11.3 | 12.9 | 0.00 | 0.00 | 0.00 | 84 | 1009.7 |
| 20260509123600 | 15 | 202 | 6.4 | 9.7 | 0.00 | 0.00 | 0.00 | 85 | 1009.6 |
| 20260509123056 | 14 | 222 | 3.2 | 3.2 | 0.00 | 0.00 | 0.00 | 85 | 1009.4 |
| 20260509122552 | 14 | 179 | 4.8 | 4.8 | 0.00 | 0.00 | 0.00 | 85 | 1009.4 |
| 20260509122050 | 14 | 209 | 4.8 | 4.8 | 0.00 | 0.00 | 0.00 | 85 | 1009.3 |
| 20260509121546 | 14 | 200 | 6.4 | 6.4 | 0.00 | 0.00 | 0.00 | 85 | 1009.3 |
| 20260509121048 | 14 | 200 | 3.2 | 3.2 | 0.00 | 0.00 | 0.00 | 86 | 1009.3 |
| 20260509120542 | 14 | 205 | 6.4 | 6.4 | 0.00 | 0.00 | 0.00 | 86 | 1009.3 |
| 20260509120040 | 13 | 207 | 1.6 | 3.2 | 0.00 | 0.00 | 0.00 | 86 | 1009.0 |
| 20260509115536 | 13 | 218 | 9.7 | 11.3 | 0.00 | 0.00 | 0.00 | 87 | 1009.0 |
| 20260509115034 | 13 | 197 | 6.4 | 6.4 | 0.00 | 0.00 | 0.00 | 87 | 1008.9 |
| 20260509114532 | 13 | 204 | 6.4 | 6.4 | 0.00 | 0.00 | 0.00 | 87 | 1008.8 |
| 20260509114031 | 13 | 202 | 4.8 | 4.8 | 0.00 | 0.00 | 0.00 | 86 | 1008.6 |
| 20260509113529 | 13 | 210 | 6.4 | 6.4 | 0.00 | 0.00 | 0.00 | 86 | 1008.4 |
| 20260509113027 | 13 | 212 | 1.6 | 3.2 | 0.00 | 0.00 | 0.00 | 86 | 1008.5 |
| 20260509112523 | 13 | 204 | 8.0 | 11.3 | 0.00 | 0.00 | 0.00 | 86 | 1008.3 |
| 20260509112019 | 13 | 199 | 4.8 | 4.8 | 0.00 | 0.00 | 0.00 | 86 | 1008.2 |
| 20260509111517 | 13 | 208 | 6.4 | 9.7 | 0.00 | 0.00 | 0.00 | 86 | 1008.4 |
| 20260509111014 | 13 | 202 | 3.2 | 3.2 | 0.00 | 0.00 | 0.00 | 86 | 1008.4 |
| 20260509110510 | 13 | 213 | 3.2 | 4.8 | 0.00 | 0.00 | 0.00 | 86 | 1008.3 |
| 20260509110007 | 13 | 239 | 3.2 | 3.2 | 0.00 | 0.00 | 0.00 | 86 | 1008.5 |
| 20260509105506 | 13 | 203 | 3.2 | 4.8 | 0.00 | 0.00 | 0.00 | 86 | 1008.5 |
| 20260509105003 | 13 | 197 | 4.8 | 4.8 | 0.00 | 0.00 | 0.00 | 85 | 1008.3 |
| 20260509104500 | 13 | 198 | 4.8 | 4.8 | 0.00 | 0.00 | 0.00 | 84 | 1008.1 |
| 20260509103957 | 13 | 214 | 6.4 | 6.4 | 0.00 | 0.00 | 0.00 | 84 | 1008.0 |
| 20260509103454 | 13 | 214 | 4.8 | 4.8 | 0.00 | 0.00 | 0.00 | 84 | 1008.2 |
| 20260509102953 | 13 | 207 | 12.9 | 16.1 | 0.00 | 0.00 | 0.00 | 84 | 1008.0 |
| 20260509102450 | 13 | 222 | 3.2 | 4.8 | 0.00 | 0.00 | 0.00 | 84 | 1007.9 |
| 20260509101946 | 13 | 217 | 6.4 | 9.7 | 0.00 | 0.00 | 0.00 | 84 | 1007.8 |
| 20260509101442 | 13 | 211 | 3.2 | 4.8 | 0.00 | 0.00 | 0.00 | 84 | 1007.8 |
| 20260509100940 | 13 | 211 | 3.2 | 4.8 | 0.00 | 0.00 | 0.00 | 84 | 1007.8 |
| 20260509100437 | 13 | 234 | 3.2 | 3.2 | 0.00 | 0.00 | 0.00 | 84 | 1007.9 |
| 20260509095933 | 13 | 196 | 3.2 | 3.2 | 0.00 | 0.00 | 0.00 | 84 | 1007.9 |
| 20260509095430 | 13 | 188 | 4.8 | 4.8 | 0.00 | 0.00 | 0.00 | 84 | 1008.1 |
| 20260509094927 | 13 | 195 | 3.2 | 4.8 | 0.00 | 0.00 | 0.00 | 84 | 1008.1 |
| 20260509094424 | 13 | 200 | 3.2 | 4.8 | 0.00 | 0.00 | 0.00 | 83 | 1008.0 |
| 20260509093922 | 13 | 221 | 4.8 | 6.4 | 0.00 | 0.00 | 0.00 | 83 | 1008.3 |
| 20260509093419 | 13 | 216 | 6.4 | 6.4 | 0.00 | 0.00 | 0.00 | 83 | 1008.2 |
| 20260509092917 | 14 | 198 | 6.4 | 6.4 | 0.00 | 0.00 | 0.00 | 82 | 1008.4 |
| 20260509092414 | 14 | 219 | 6.4 | 6.4 | 0.00 | 0.00 | 0.00 | 81 | 1007.9 |
| 20260509091913 | 14 | 208 | 4.8 | 4.8 | 0.00 | 0.00 | 0.00 | 80 | 1008.3 |
| 20260509091409 | 14 | 191 | 6.4 | 9.7 | 0.00 | 0.00 | 0.00 | 79 | 1008.6 |
| 20260509090907 | 14 | 195 | 8.0 | 9.7 | 0.00 | 0.00 | 0.00 | 79 | 1008.4 |
| 20260509090403 | 15 | 201 | 4.8 | 6.4 | 0.00 | 0.00 | 0.00 | 79 | 1008.5 |
| 20260509085901 | 15 | 211 | 6.4 | 6.4 | 0.00 | 0.00 | 0.00 | 78 | 1009.0 |
| 20260509085358 | 15 | 215 | 4.8 | 4.8 | 0.00 | 0.00 | 0.00 | 78 | 1008.4 |
| 20260509084854 | 15 | 212 | 6.4 | 9.7 | 0.00 | 0.00 | 0.00 | 78 | 1008.6 |
| 20260509084351 | 15 | 203 | 6.4 | 6.4 | 0.00 | 0.00 | 0.00 | 78 | 1008.9 |
| 20260509083849 | 15 | 204 | 6.4 | 6.4 | 0.00 | 0.00 | 0.00 | 78 | 1009.0 |
| 20260509083345 | 15 | 215 | 8.0 | 9.7 | 0.00 | 0.00 | 0.00 | 78 | 1008.8 |
| 20260509082842 | 15 | 204 | 4.8 | 6.4 | 0.00 | 0.00 | 0.00 | 78 | 1008.9 |
| 20260509082339 | 15 | 195 | 1.6 | 1.6 | 0.00 | 0.00 | 0.00 | 77 | 1008.6 |
| 20260509081837 | 15 | 216 | 3.2 | 3.2 | 0.00 | 0.00 | 0.00 | 77 | 1008.8 |
| 20260509081333 | 15 | 204 | 3.2 | 4.8 | 0.00 | 0.00 | 0.00 | 78 | 1009.0 |
| 20260509080832 | 15 | 218 | 1.6 | 1.6 | 0.00 | 0.00 | 0.00 | 77 | 1009.0 |
| 20260509080329 | 15 | 216 | 3.2 | 3.2 | 0.00 | 0.00 | 0.00 | 77 | 1009.3 |
| 20260509075827 | 15 | 205 | 8.0 | 9.7 | 0.00 | 0.00 | 0.00 | 77 | 1009.2 |
| 20260509075324 | 15 | 195 | 6.4 | 6.4 | 0.00 | 0.00 | 0.00 | 76 | 1009.0 |
| 20260509074821 | 15 | 206 | 1.6 | 1.6 | 0.00 | 0.00 | 0.00 | 76 | 1009.2 |
| 20260509074319 | 15 | 226 | 4.8 | 4.8 | 0.00 | 0.00 | 0.00 | 76 | 1009.1 |
| 20260509073815 | 15 | 197 | 6.4 | 6.4 | 0.00 | 0.00 | 0.00 | 76 | 1009.2 |
| 20260509073311 | 15 | 206 | 3.2 | 3.2 | 0.00 | 0.00 | 0.00 | 76 | 1009.2 |
| 20260509072808 | 15 | 205 | 4.8 | 4.8 | 0.00 | 0.00 | 0.00 | 76 | 1009.1 |
| 20260509072306 | 15 | 186 | 3.2 | 3.2 | 0.00 | 0.00 | 0.00 | 75 | 1009.0 |
| 20260509071801 | 15 | 239 | 4.8 | 6.4 | 0.00 | 0.00 | 0.00 | 75 | 1009.2 |
| 20260509071258 | 15 | 210 | 4.8 | 6.4 | 0.00 | 0.00 | 0.00 | 75 | 1009.1 |
| 20260509070755 | 15 | 204 | 3.2 | 4.8 | 0.00 | 0.00 | 0.00 | 75 | 1009.0 |
| 20260509070252 | 15 | 230 | 4.8 | 6.4 | 0.00 | 0.00 | 0.00 | 74 | 1009.0 |
| 20260509065748 | 15 | 215 | 4.8 | 6.4 | 0.00 | 0.00 | 0.00 | 73 | 1008.8 |
| 20260509065245 | 15 | 202 | 6.4 | 11.3 | 0.00 | 0.00 | 0.00 | 73 | 1008.6 |
| 20260509064741 | 15 | 223 | 3.2 | 3.2 | 0.00 | 0.00 | 0.00 | 73 | 1008.5 |
| 20260509064239 | 15 | 231 | 4.8 | 6.4 | 0.00 | 0.00 | 0.00 | 73 | 1008.6 |
| 20260509063736 | 15 | 208 | 6.4 | 9.7 | 0.00 | 0.00 | 0.00 | 72 | 1008.9 |
| 20260509063232 | 15 | 169 | 6.4 | 9.7 | 0.00 | 0.00 | 0.00 | 72 | 1009.2 |
| 20260509062730 | 15 | 204 | 6.4 | 9.7 | 0.00 | 0.00 | 0.00 | 72 | 1009.2 |
| 20260509062226 | 15 | 176 | 6.4 | 9.7 | 0.00 | 0.00 | 0.00 | 71 | 1009.2 |
| 20260509061723 | 15 | 208 | 4.8 | 9.7 | 0.00 | 0.00 | 0.00 | 70 | 1009.2 |
| 20260509061221 | 15 | 207 | 6.4 | 11.3 | 0.00 | 0.00 | 0.00 | 70 | 1009.5 |
| 20260509060719 | 15 | 219 | 6.4 | 9.7 | 0.00 | 0.00 | 0.00 | 70 | 1009.6 |
| 20260509060214 | 15 | 219 | 6.4 | 6.4 | 0.00 | 0.00 | 0.00 | 69 | 1009.8 |
| 20260509055710 | 15 | 223 | 8.0 | 9.7 | 0.00 | 0.00 | 0.00 | 69 | 1009.5 |
| 20260509055206 | 15 | 232 | 8.0 | 11.3 | 0.00 | 0.00 | 0.00 | 68 | 1009.5 |
| 20260509054703 | 15 | 215 | 6.4 | 6.4 | 0.00 | 0.00 | 0.00 | 68 | 1009.6 |
| 20260509054200 | 15 | 236 | 6.4 | 6.4 | 0.00 | 0.00 | 0.00 | 68 | 1009.4 |
| 20260509053659 | 15 | 179 | 6.4 | 6.4 | 0.00 | 0.00 | 0.00 | 67 | 1009.7 |
| 20260509053155 | 15 | 216 | 4.8 | 6.4 | 0.00 | 0.00 | 0.00 | 67 | 1009.5 |
| 20260509052653 | 15 | 228 | 9.7 | 12.9 | 0.00 | 0.00 | 0.00 | 67 | 1009.7 |
| 20260509052150 | 15 | 216 | 4.8 | 4.8 | 0.00 | 0.00 | 0.00 | 66 | 1009.6 |
| 20260509051648 | 15 | 179 | 4.8 | 4.8 | 0.00 | 0.00 | 0.00 | 66 | 1009.6 |
| 20260509051145 | 15 | 212 | 4.8 | 4.8 | 0.00 | 0.00 | 0.00 | 65 | 1009.6 |
| 20260509050642 | 16 | 211 | 6.4 | 6.4 | 0.00 | 0.00 | 0.00 | 65 | 1009.6 |
| 20260509050139 | 16 | 203 | 4.8 | 4.8 | 0.00 | 0.00 | 0.00 | 64 | 1009.7 |
| 20260509045636 | 16 | 212 | 6.4 | 6.4 | 0.00 | 0.00 | 0.00 | 64 | 1009.7 |
| 20260509045133 | 16 | 205 | 3.2 | 4.8 | 0.00 | 0.00 | 0.00 | 64 | 1009.7 |
| 20260509044630 | 16 | 213 | 3.2 | 4.8 | 0.00 | 0.00 | 0.00 | 64 | 1009.3 |
| 20260509044128 | 16 | 190 | 6.4 | 6.4 | 0.00 | 0.00 | 0.00 | 63 | 1009.5 |
| 20260509043624 | 16 | 209 | 3.2 | 4.8 | 0.00 | 0.00 | 0.00 | 62 | 1009.7 |
| 20260509043120 | 16 | 212 | 3.2 | 4.8 | 0.00 | 0.00 | 0.00 | 62 | 1009.8 |
| 20260509042616 | 16 | 210 | 6.4 | 6.4 | 0.00 | 0.00 | 0.00 | 61 | 1009.5 |
| 20260509042112 | 16 | 194 | 9.7 | 11.3 | 0.00 | 0.00 | 0.00 | 61 | 1009.7 |
| 20260509041609 | 16 | 192 | 3.2 | 4.8 | 0.00 | 0.00 | 0.00 | 60 | 1009.5 |
| 20260509041107 | 16 | 234 | 3.2 | 3.2 | 0.00 | 0.00 | 0.00 | 60 | 1009.6 |
| 20260509040605 | 16 | 198 | 4.8 | 4.8 | 0.00 | 0.00 | 0.00 | 59 | 1009.5 |
| 20260509040101 | 16 | 213 | 4.8 | 6.4 | 0.00 | 0.00 | 0.00 | 58 | 1009.6 |
| 20260509035558 | 16 | 202 | 6.4 | 9.7 | 0.00 | 0.00 | 0.00 | 58 | 1009.7 |
| 20260509035055 | 16 | 227 | 3.2 | 4.8 | 0.00 | 0.00 | 0.00 | 58 | 1009.6 |
| 20260509034553 | 16 | 175 | 4.8 | 6.4 | 0.00 | 0.00 | 0.00 | 58 | 1009.7 |
| 20260509034050 | 16 | 200 | 6.4 | 6.4 | 0.00 | 0.00 | 0.00 | 57 | 1009.8 |
| 20260509033547 | 16 | 220 | 6.4 | 9.7 | 0.00 | 0.00 | 0.00 | 57 | 1009.7 |
| 20260509033043 | 16 | 195 | 3.2 | 4.8 | 0.00 | 0.00 | 0.00 | 56 | 1009.7 |
| 20260509032541 | 16 | 225 | 4.8 | 4.8 | 0.00 | 0.00 | 0.00 | 57 | 1009.8 |
| 20260509032038 | 16 | 184 | 1.6 | 1.6 | 0.00 | 0.00 | 0.00 | 56 | 1009.7 |
| 20260509031536 | 16 | 184 | 4.8 | 4.8 | 0.00 | 0.00 | 0.00 | 56 | 1009.9 |
| 20260509031033 | 16 | 217 | 3.2 | 3.2 | 0.00 | 0.00 | 0.00 | 57 | 1010.0 |
| 20260509030531 | 16 | 212 | 1.6 | 3.2 | 0.00 | 0.00 | 0.00 | 58 | 1009.9 |
| 20260509030027 | 16 | 206 | 1.6 | 3.2 | 0.00 | 0.00 | 0.00 | 58 | 1009.5 |
| 20260509025523 | 16 | 272 | 1.6 | 1.6 | 0.00 | 0.00 | 0.00 | 58 | 1009.7 |
| 20260509025019 | 16 | 166 | 0.0 | 0.0 | 0.00 | 0.00 | 0.00 | 58 | 1009.8 |
| 20260509024515 | 16 | 207 | 0.0 | 0.0 | 0.00 | 0.00 | 0.00 | 57 | 1009.9 |
| 20260509024012 | 16 | 186 | 0.0 | 1.6 | 0.00 | 0.00 | 0.00 | 56 | 1009.7 |
| 20260509023509 | 16 | 230 | 0.0 | 0.0 | 0.00 | 0.00 | 0.00 | 56 | 1009.7 |
| 20260509023006 | 16 | 205 | 0.0 | 1.6 | 0.00 | 0.00 | 0.00 | 56 | 1009.7 |
| 20260509022503 | 16 | 231 | 0.0 | 0.0 | 0.00 | 0.00 | 0.00 | 55 | 1009.8 |
| 20260509022000 | 17 | 233 | 1.6 | 1.6 | 0.00 | 0.00 | 0.00 | 55 | 1009.8 |
| 20260509021457 | 16 | 216 | 1.6 | 1.6 | 0.00 | 0.00 | 0.00 | 56 | 1009.9 |
| 20260509020954 | 16 | 182 | 0.0 | 0.0 | 0.00 | 0.00 | 0.00 | 57 | 1009.9 |
| 20260509020453 | 16 | 181 | 1.6 | 1.6 | 0.00 | 0.00 | 0.00 | 55 | 1009.9 |
| 20260509015949 | 17 | 221 | 1.6 | 1.6 | 0.00 | 0.00 | 0.00 | 54 | 1009.9 |
| 20260509015448 | 17 | 223 | 0.0 | 0.0 | 0.00 | 0.00 | 0.00 | 53 | 1009.8 |
| 20260509014944 | 17 | 206 | 0.0 | 1.6 | 0.00 | 0.00 | 0.00 | 54 | 1009.8 |
| 20260509014441 | 17 | 243 | 1.6 | 1.6 | 0.00 | 0.00 | 0.00 | 53 | 1009.6 |
| 20260509013937 | 17 | 254 | 0.0 | 0.0 | 0.00 | 0.00 | 0.00 | 54 | 1009.7 |
| 20260509013434 | 17 | 214 | 1.6 | 3.2 | 0.00 | 0.00 | 0.00 | 53 | 1009.6 |
| 20260509012930 | 17 | 222 | 0.0 | 0.0 | 0.00 | 0.00 | 0.00 | 54 | 1009.8 |
| 20260509012427 | 17 | 110 | 0.0 | 0.0 | 0.00 | 0.00 | 0.00 | 53 | 1009.7 |
| 20260509011924 | 17 | 189 | 1.6 | 3.2 | 0.00 | 0.00 | 0.00 | 53 | 1009.5 |
| 20260509011421 | 17 | 219 | 0.0 | 0.0 | 0.00 | 0.00 | 0.00 | 53 | 1009.5 |
| 20260509010919 | 17 | 127 | 1.6 | 1.6 | 0.00 | 0.00 | 0.00 | 54 | 1009.6 |
| 20260509010416 | 17 | 55 | 0.0 | 1.6 | 0.00 | 0.00 | 0.00 | 53 | 1009.7 |
| 20260509005913 | 17 | 91 | 0.0 | 1.6 | 0.00 | 0.00 | 0.00 | 53 | 1009.6 |
| 20260509005411 | 18 | 158 | 0.0 | 0.0 | 0.00 | 0.00 | 0.00 | 53 | 1009.6 |
| 20260509004911 | 18 | 203 | 0.0 | 0.0 | 0.00 | 0.00 | 0.00 | 53 | 1009.7 |
| 20260509004408 | 18 | 190 | 0.0 | 1.6 | 0.00 | 0.00 | 0.00 | 53 | 1009.8 |
| 20260509003906 | 18 | 201 | 0.0 | 1.6 | 0.00 | 0.00 | 0.00 | 51 | 1009.7 |
| 20260509003403 | 18 | 205 | 0.0 | 0.0 | 0.00 | 0.00 | 0.00 | 50 | 1009.9 |
| 20260509002900 | 19 | 257 | 0.0 | 1.6 | 0.00 | 0.00 | 0.00 | 49 | 1009.9 |
| 20260509002358 | 20 | 204 | 0.0 | 0.0 | 0.00 | 0.00 | 0.00 | 48 | 1009.8 |
| 20260509001855 | 20 | 172 | 1.6 | 1.6 | 0.00 | 0.00 | 0.00 | 48 | 1009.9 |
| 20260509001351 | 20 | 190 | 3.2 | 4.8 | 0.00 | 0.00 | 0.00 | 46 | 1010.1 |
| 20260509000848 | 20 | 221 | 1.6 | 3.2 | 0.00 | 0.00 | 0.00 | 46 | 1010.0 |
| 20260509000348 | 20 | 180 | 0.0 | 1.6 | 0.00 | 0.00 | 0.00 | 45 | 1010.1 |
| 20260508235842 | 20 | 197 | 0.0 | 0.0 | 0.00 | 0.00 | 0.00 | 45 | 1010.1 |
| 20260508235339 | 21 | 185 | 1.6 | 1.6 | 0.00 | 0.00 | 0.00 | 45 | 1010.0 |
| 20260508234836 | 21 | 217 | 3.2 | 3.2 | 0.00 | 0.00 | 0.00 | 43 | 1010.1 |
| 20260508234332 | 21 | 188 | 3.2 | 4.8 | 0.00 | 0.00 | 0.00 | 44 | 1010.4 |
| 20260508233831 | 21 | 215 | 3.2 | 3.2 | 0.00 | 0.00 | 0.00 | 41 | 1010.4 |
| 20260508233330 | 21 | 207 | 3.2 | 3.2 | 0.00 | 0.00 | 0.00 | 41 | 1010.4 |
| 20260508232826 | 21 | 177 | 1.6 | 1.6 | 0.00 | 0.00 | 0.00 | 41 | 1010.4 |
| 20260508232323 | 22 | 138 | 3.2 | 3.2 | 0.00 | 0.00 | 0.00 | 43 | 1010.4 |
| 20260508231822 | 22 | 202 | 6.4 | 9.7 | 0.00 | 0.00 | 0.00 | 39 | 1010.4 |
| 20260508231317 | 22 | 169 | 4.8 | 6.4 | 0.00 | 0.00 | 0.00 | 39 | 1010.7 |
| 20260508230814 | 22 | 207 | 6.4 | 6.4 | 0.00 | 0.00 | 0.00 | 39 | 1010.7 |
| 20260508230311 | 22 | 320 | 1.6 | 1.6 | 0.00 | 0.00 | 0.00 | 38 | 1010.7 |
| 20260508225808 | 22 | 106 | 4.8 | 6.4 | 0.00 | 0.00 | 0.00 | 39 | 1010.6 |
| 20260508225306 | 22 | 204 | 3.2 | 4.8 | 0.00 | 0.00 | 0.00 | 40 | 1010.9 |
| 20260508224803 | 22 | 237 | 6.4 | 9.7 | 0.00 | 0.00 | 0.00 | 39 | 1010.7 |
| 20260508224300 | 22 | 214 | 1.6 | 3.2 | 0.00 | 0.00 | 0.00 | 40 | 1010.7 |
| 20260508223758 | 22 | 241 | 1.6 | 1.6 | 0.00 | 0.00 | 0.00 | 42 | 1010.7 |
| 20260508223255 | 22 | 179 | 6.4 | 9.7 | 0.00 | 0.00 | 0.00 | 39 | 1010.7 |